Time;durP1;ratioP1;P1;durP2;ratioP2;P2;SDS_P1;SDS_P2;PMS_P1;PMS_P2;Temp;Humidity;BMP_temperature;BMP_pressure;BME280_temperature;BME280_humidity;BME280_pressure;Samples;Min_cycle;Max_cycle;Signal;HPM_P1;HPM_P2
2023/05/10 00:02:08;;;;;;;30.50;17.27;;;;;;;;;;5038758;28;20884;-83
2023/05/10 00:04:34;;;;;;;30.03;17.40;;;;;;;;;;5056289;28;20465;-83
2023/05/10 00:07:00;;;;;;;31.60;17.90;;;;;;;;;;5056424;28;20775;-82
2023/05/10 00:09:26;;;;;;;26.40;16.30;;;;;;;;;;5038581;28;20409;-83
2023/05/10 00:11:52;;;;;;;34.63;16.30;;;;;;;;;;5038172;28;20431;-83
2023/05/10 00:14:18;;;;;;;28.63;16.10;;;;;;;;;;5038771;28;20967;-83
2023/05/10 00:16:44;;;;;;;26.90;17.33;;;;;;;;;;5055811;28;20782;-83
2023/05/10 00:19:10;;;;;;;29.97;17.27;;;;;;;;;;5038894;28;20813;-82
2023/05/10 00:21:36;;;;;;;33.90;18.37;;;;;;;;;;5056032;28;20404;-83
2023/05/10 00:24:02;;;;;;;31.03;18.67;;;;;;;;;;5038536;28;20975;-83
2023/05/10 00:26:28;;;;;;;32.60;19.07;;;;;;;;;;5038208;28;20470;-83
2023/05/10 00:28:54;;;;;;;26.10;16.50;;;;;;;;;;5037896;28;20428;-83
2023/05/10 00:31:20;;;;;;;38.30;19.00;;;;;;;;;;5055643;28;20951;-83
2023/05/10 00:33:46;;;;;;;33.30;19.50;;;;;;;;;;5037758;28;20464;-83
2023/05/10 00:36:12;;;;;;;30.20;18.80;;;;;;;;;;5037807;28;20462;-83
2023/05/10 00:38:38;;;;;;;32.43;18.70;;;;;;;;;;5037354;28;20412;-83
2023/05/10 00:41:04;;;;;;;28.40;17.67;;;;;;;;;;5038173;28;20387;-83
2023/05/10 00:43:30;;;;;;;38.87;19.53;;;;;;;;;;5037881;28;20991;-83
2023/05/10 00:45:56;;;;;;;40.97;20.20;;;;;;;;;;5055659;28;20455;-83
2023/05/10 00:48:22;;;;;;;35.47;18.90;;;;;;;;;;5037983;28;20905;-83
2023/05/10 00:50:48;;;;;;;34.20;19.13;;;;;;;;;;5037466;28;20412;-83
2023/05/10 00:53:15;;;;;;;32.73;19.07;;;;;;;;;;5037745;28;20471;-83
2023/05/10 00:55:41;;;;;;;30.53;18.60;;;;;;;;;;5037602;28;20420;-83
2023/05/10 00:58:07;;;;;;;28.40;17.00;;;;;;;;;;5055575;28;20538;-83
2023/05/10 01:00:34;;;;;;;29.47;17.10;;;;;;;;;;5037548;28;20423;-83
2023/05/10 01:03:01;;;;;;;34.63;17.53;;;;;;;;;;5055242;28;20507;-83
2023/05/10 01:05:27;;;;;;;29.20;17.40;;;;;;;;;;5037751;28;20439;-83
2023/05/10 01:07:53;;;;;;;29.70;16.07;;;;;;;;;;5037354;28;20407;-83
2023/05/10 01:10:19;;;;;;;24.37;14.73;;;;;;;;;;5036925;28;20416;-83
2023/05/10 01:12:46;;;;;;;29.20;17.47;;;;;;;;;;5036991;28;20416;-82
2023/05/10 01:15:13;;;;;;;25.57;14.90;;;;;;;;;;5037656;28;20897;-82
2023/05/10 01:17:41;;;;;;;25.45;14.60;;;;;;;;;;5037625;28;20419;-82
2023/05/10 01:20:08;;;;;;;26.83;15.70;;;;;;;;;;5037420;28;20173;-82
2023/05/10 01:22:43;;;;;;;28.00;16.17;;;;;;;;;;5037689;28;20420;-81
2023/05/10 01:25:12;;;;;;;21.17;14.50;;;;;;;;;;5055447;28;20387;-82
2023/05/10 01:27:44;;;;;;;30.13;16.00;;;;;;;;;;5037031;28;20503;-83
2023/05/10 01:30:25;;;;;;;26.23;15.30;;;;;;;;;;5037094;28;20469;-81
2023/05/10 01:33:00;;;;;;;30.40;16.40;;;;;;;;;;5036956;28;20966;-81
2023/05/10 01:36:02;;;;;;;27.67;17.30;;;;;;;;;;5037319;28;20424;-81
2023/05/10 01:38:37;;;;;;;26.97;15.83;;;;;;;;;;4996758;28;20435;-81
2023/05/10 01:41:06;;;;;;;29.20;17.10;;;;;;;;;;5049442;28;20934;-82
2023/05/10 01:43:37;;;;;;;30.90;16.60;;;;;;;;;;5054554;28;20420;-82
2023/05/10 01:46:10;;;;;;;31.17;18.27;;;;;;;;;;5037079;28;20461;-82
2023/05/10 01:48:37;;;;;;;31.63;16.40;;;;;;;;;;5055002;28;20419;-81
2023/05/10 01:51:04;;;;;;;37.30;17.57;;;;;;;;;;5036770;28;20415;-81
2023/05/10 01:53:31;;;;;;;36.00;18.40;;;;;;;;;;5036819;28;20479;-81
2023/05/10 01:55:57;;;;;;;35.37;18.67;;;;;;;;;;5054929;28;20411;-81
2023/05/10 01:58:26;;;;;;;36.23;18.77;;;;;;;;;;5037003;28;20762;-82
2023/05/10 02:00:53;;;;;;;33.50;18.67;;;;;;;;;;5054147;28;20903;-81
2023/05/10 02:03:21;;;;;;;41.27;18.60;;;;;;;;;;5036692;28;20988;-81
2023/05/10 02:05:48;;;;;;;33.90;17.47;;;;;;;;;;5054378;28;20414;-82
2023/05/10 02:08:15;;;;;;;34.97;19.33;;;;;;;;;;5054697;28;20396;-81
2023/05/10 02:10:41;;;;;;;36.40;18.97;;;;;;;;;;5036760;28;20755;-82
2023/05/10 02:13:08;;;;;;;32.60;18.80;;;;;;;;;;5036807;28;20564;-81
2023/05/10 02:15:34;;;;;;;39.97;21.57;;;;;;;;;;5036611;28;20450;-81
2023/05/10 02:18:01;;;;;;;32.00;18.70;;;;;;;;;;5036542;28;20819;-81
2023/05/10 02:20:27;;;;;;;29.90;17.63;;;;;;;;;;5054581;28;20488;-81
2023/05/10 02:22:55;;;;;;;39.07;20.67;;;;;;;;;;5036607;28;20423;-81
2023/05/10 02:25:21;;;;;;;35.73;17.30;;;;;;;;;;5054667;28;20447;-81
2023/05/10 02:27:48;;;;;;;27.80;17.33;;;;;;;;;;5036772;28;20416;-81
2023/05/10 02:30:14;;;;;;;26.47;15.93;;;;;;;;;;5054757;28;20461;-81
2023/05/10 02:32:41;;;;;;;27.60;15.40;;;;;;;;;;5054101;28;20476;-81
2023/05/10 02:35:07;;;;;;;31.60;16.87;;;;;;;;;;5054879;28;20392;-81
2023/05/10 02:37:34;;;;;;;24.52;14.05;;;;;;;;;;5036828;28;20419;-81
2023/05/10 02:40:05;;;;;;;27.90;15.13;;;;;;;;;;5054796;28;20227;-81
2023/05/10 02:42:33;;;;;;;25.10;15.07;;;;;;;;;;5036738;28;20825;-81
2023/05/10 02:45:02;;;;;;;23.63;13.60;;;;;;;;;;5054323;28;20436;-80
2023/05/10 02:47:29;;;;;;;22.80;14.03;;;;;;;;;;5054320;28;20910;-80
2023/05/10 02:49:55;;;;;;;26.03;13.83;;;;;;;;;;5054350;28;20461;-80
2023/05/10 02:52:27;;;;;;;19.57;12.67;;;;;;;;;;5054529;28;20415;-80
2023/05/10 02:54:55;;;;;;;22.70;12.80;;;;;;;;;;5037386;28;20491;-81
2023/05/10 02:57:25;;;;;;;21.77;12.30;;;;;;;;;;5040660;28;20445;-80
2023/05/10 02:59:51;;;;;;;20.45;12.27;;;;;;;;;;5040560;28;20432;-81
2023/05/10 03:02:17;;;;;;;27.20;13.85;;;;;;;;;;5040326;28;20244;-81
2023/05/10 03:04:43;;;;;;;24.90;13.73;;;;;;;;;;5040714;28;20181;-84
2023/05/10 03:07:09;;;;;;;20.17;12.47;;;;;;;;;;5040595;28;20813;-81
2023/05/10 03:09:35;;;;;;;19.23;12.07;;;;;;;;;;5058187;28;20407;-80
2023/05/10 03:12:14;;;;;;;26.03;14.23;;;;;;;;;;5040398;28;20173;-80
2023/05/10 03:14:40;;;;;;;22.90;13.50;;;;;;;;;;5040246;28;20452;-80
2023/05/10 03:17:12;;;;;;;27.33;15.03;;;;;;;;;;5040393;28;20427;-80
2023/05/10 03:19:50;;;;;;;25.80;14.53;;;;;;;;;;5040575;28;20936;-80
2023/05/10 03:22:19;;;;;;;22.17;14.27;;;;;;;;;;5058331;28;20392;-80
2023/05/10 03:24:45;;;;;;;24.07;14.00;;;;;;;;;;5039888;28;20407;-81
2023/05/10 03:27:12;;;;;;;22.27;14.10;;;;;;;;;;5040375;28;20412;-80
2023/05/10 03:29:38;;;;;;;24.13;12.53;;;;;;;;;;5057949;28;20375;-80
2023/05/10 03:32:04;;;;;;;26.37;14.53;;;;;;;;;;5039808;28;20407;-80
2023/05/10 03:34:33;;;;;;;23.87;14.53;;;;;;;;;;5057257;28;20479;-80
2023/05/10 03:36:59;;;;;;;28.57;15.27;;;;;;;;;;5039937;28;20420;-80
2023/05/10 03:39:25;;;;;;;32.10;17.50;;;;;;;;;;5058004;28;20404;-80
2023/05/10 03:41:51;;;;;;;37.37;19.00;;;;;;;;;;5057832;28;20400;-80
2023/05/10 03:44:18;;;;;;;39.67;22.00;;;;;;;;;;5040111;28;20905;-80
2023/05/10 03:46:44;;;;;;;42.60;22.90;;;;;;;;;;5039751;28;20914;-80
2023/05/10 03:49:10;;;;;;;41.47;22.07;;;;;;;;;;5039708;28;20424;-80
2023/05/10 03:51:36;;;;;;;40.33;22.23;;;;;;;;;;5040189;28;20519;-80
2023/05/10 03:54:02;;;;;;;38.30;23.07;;;;;;;;;;5039381;28;20551;-80
2023/05/10 03:56:28;;;;;;;45.57;23.20;;;;;;;;;;5039673;28;20473;-80
2023/05/10 03:58:54;;;;;;;39.67;23.17;;;;;;;;;;5039087;28;20416;-80
2023/05/10 04:01:20;;;;;;;32.47;20.10;;;;;;;;;;5057036;28;20408;-80
2023/05/10 04:03:46;;;;;;;42.43;23.37;;;;;;;;;;5039857;28;20432;-80
2023/05/10 04:06:12;;;;;;;43.10;24.00;;;;;;;;;;5057038;28;20644;-80
2023/05/10 04:08:38;;;;;;;43.37;22.47;;;;;;;;;;5039471;28;20424;-80
2023/05/10 04:11:08;;;;;;;43.43;25.33;;;;;;;;;;5057241;28;20453;-79
2023/05/10 04:13:34;;;;;;;35.60;23.97;;;;;;;;;;5039008;28;20467;-80
2023/05/10 04:16:00;;;;;;;47.27;23.13;;;;;;;;;;5039088;28;20904;-80
2023/05/10 04:18:26;;;;;;;40.47;24.00;;;;;;;;;;5057033;28;20753;-80
2023/05/10 04:20:52;;;;;;;40.37;24.90;;;;;;;;;;5057166;28;20415;-79
2023/05/10 04:23:18;;;;;;;44.10;24.50;;;;;;;;;;5039772;28;20405;-79
2023/05/10 04:25:44;;;;;;;45.53;24.10;;;;;;;;;;5039368;28;20777;-79
2023/05/10 04:28:10;;;;;;;45.40;24.23;;;;;;;;;;5056770;28;20407;-80
2023/05/10 04:30:36;;;;;;;43.00;23.87;;;;;;;;;;5039729;28;20411;-79
2023/05/10 04:33:03;;;;;;;41.20;24.23;;;;;;;;;;5038289;28;20814;-80
2023/05/10 04:35:29;;;;;;;44.57;23.80;;;;;;;;;;5038688;28;20452;-79
2023/05/10 04:37:55;;;;;;;41.07;23.80;;;;;;;;;;5039013;28;20412;-80
2023/05/10 04:40:21;;;;;;;38.27;22.23;;;;;;;;;;5038946;28;20416;-79
2023/05/10 04:42:47;;;;;;;50.33;23.77;;;;;;;;;;5038781;28;20751;-79
2023/05/10 04:45:14;;;;;;;39.33;24.43;;;;;;;;;;5038380;28;20411;-79
2023/05/10 04:47:40;;;;;;;48.33;23.77;;;;;;;;;;5038423;28;20420;-79
2023/05/10 04:50:07;;;;;;;35.00;22.60;;;;;;;;;;5055900;28;20412;-79
2023/05/10 04:52:33;;;;;;;45.67;23.93;;;;;;;;;;5056196;28;20400;-79
2023/05/10 04:54:59;;;;;;;40.30;22.23;;;;;;;;;;5038321;28;20559;-80
2023/05/10 04:57:25;;;;;;;44.55;22.85;;;;;;;;;;5038613;28;20420;-79
2023/05/10 04:59:51;;;;;;;40.90;22.27;;;;;;;;;;5055588;28;20539;-81
2023/05/10 05:02:17;;;;;;;44.17;22.17;;;;;;;;;;5038366;28;20177;-79
2023/05/10 05:04:43;;;;;;;47.47;20.87;;;;;;;;;;5056430;28;20407;-79
2023/05/10 05:07:09;;;;;;;36.73;21.43;;;;;;;;;;5037987;28;20503;-80
2023/05/10 05:09:36;;;;;;;44.63;21.63;;;;;;;;;;5037695;28;20415;-80
2023/05/10 05:12:02;;;;;;;43.40;22.43;;;;;;;;;;5055470;28;20404;-81
2023/05/10 05:14:27;;;;;;;42.42;20.30;;;;;;;;;;5055822;28;20768;-81
2023/05/10 05:16:54;;;;;;;37.37;20.47;;;;;;;;;;5037081;28;20181;-81
2023/05/10 05:19:20;;;;;;;38.10;20.60;;;;;;;;;;5037766;28;20955;-81
2023/05/10 05:21:46;;;;;;;37.90;19.10;;;;;;;;;;5037962;28;20416;-81
2023/05/10 05:24:12;;;;;;;40.17;20.37;;;;;;;;;;5054572;28;20934;-82
2023/05/10 05:26:38;;;;;;;39.97;18.90;;;;;;;;;;5054616;28;20565;-81
2023/05/10 05:29:04;;;;;;;35.90;19.80;;;;;;;;;;5037324;28;20419;-81
2023/05/10 05:31:30;;;;;;;40.78;20.20;;;;;;;;;;5055374;28;20397;-81
2023/05/10 05:33:56;;;;;;;43.27;20.80;;;;;;;;;;5036999;28;20255;-81
2023/05/10 05:36:22;;;;;;;33.60;18.33;;;;;;;;;;5037446;28;20925;-81
2023/05/10 05:38:48;;;;;;;36.40;18.77;;;;;;;;;;5037282;28;20419;-80
2023/05/10 05:41:14;;;;;;;36.20;16.97;;;;;;;;;;5055090;28;20396;-81
2023/05/10 05:43:40;;;;;;;29.00;18.03;;;;;;;;;;5037498;28;20397;-80
2023/05/10 05:46:06;;;;;;;36.57;18.33;;;;;;;;;;5037606;28;20407;-80
2023/05/10 05:48:32;;;;;;;34.47;19.30;;;;;;;;;;5037585;28;20423;-80
2023/05/10 05:50:59;;;;;;;33.63;17.37;;;;;;;;;;5037180;28;20423;-81
2023/05/10 05:53:25;;;;;;;29.47;16.07;;;;;;;;;;5037572;28;20434;-81
2023/05/10 05:55:52;;;;;;;29.73;18.87;;;;;;;;;;5055099;28;20472;-80
2023/05/10 05:58:18;;;;;;;31.70;17.40;;;;;;;;;;5055505;28;20918;-81
2023/05/10 06:00:44;;;;;;;33.20;17.03;;;;;;;;;;5037257;28;20403;-81
2023/05/10 06:03:10;;;;;;;30.38;18.33;;;;;;;;;;5037258;28;20519;-81
2023/05/10 06:05:36;;;;;;;32.20;17.17;;;;;;;;;;5037193;28;20610;-81
2023/05/10 06:08:02;;;;;;;35.43;17.67;;;;;;;;;;5036936;28;20502;-80
2023/05/10 06:10:28;;;;;;;27.93;17.10;;;;;;;;;;5037091;28;20419;-80
2023/05/10 06:12:54;;;;;;;25.47;17.57;;;;;;;;;;5036526;28;20464;-83
2023/05/10 06:15:20;;;;;;;28.90;18.47;;;;;;;;;;5036764;28;20420;-81
2023/05/10 06:17:48;;;;;;;31.10;17.53;;;;;;;;;;5036841;28;20408;-81
2023/05/10 06:20:14;;;;;;;30.10;15.43;;;;;;;;;;5036609;28;20423;-81
2023/05/10 06:22:40;;;;;;;31.17;17.43;;;;;;;;;;5036883;28;20511;-81
2023/05/10 06:25:07;;;;;;;27.67;17.47;;;;;;;;;;5054391;28;20436;-81
2023/05/10 06:27:33;;;;;;;30.17;17.60;;;;;;;;;;5054817;28;20521;-81
2023/05/10 06:29:59;;;;;;;30.13;17.43;;;;;;;;;;5036471;28;20770;-82
2023/05/10 06:32:25;;;;;;;28.80;17.83;;;;;;;;;;5036589;28;20416;-81
2023/05/10 06:34:51;;;;;;;31.83;19.17;;;;;;;;;;5037045;28;20483;-81
2023/05/10 06:37:17;;;;;;;33.80;18.20;;;;;;;;;;5037030;28;20426;-81
2023/05/10 06:39:43;;;;;;;31.47;20.70;;;;;;;;;;5036628;28;20963;-81
2023/05/10 06:42:09;;;;;;;33.03;18.13;;;;;;;;;;5053769;28;20438;-81
2023/05/10 06:44:35;;;;;;;31.50;17.43;;;;;;;;;;5037038;28;20435;-80
2023/05/10 06:47:00;;;;;;;29.73;17.67;;;;;;;;;;5054250;28;20743;-81
2023/05/10 06:49:26;;;;;;;41.17;20.53;;;;;;;;;;5053981;28;20410;-81
2023/05/10 06:51:53;;;;;;;35.77;20.23;;;;;;;;;;5054669;28;20404;-80
2023/05/10 06:54:19;;;;;;;38.50;19.33;;;;;;;;;;5036564;28;20487;-80
2023/05/10 06:56:45;;;;;;;37.63;18.20;;;;;;;;;;5036781;28;20423;-81
2023/05/10 06:59:12;;;;;;;29.73;19.33;;;;;;;;;;5036570;28;20771;-80
2023/05/10 07:01:38;;;;;;;35.07;19.67;;;;;;;;;;5036791;28;20431;-80
2023/05/10 07:04:04;;;;;;;29.93;18.47;;;;;;;;;;5036273;28;20515;-81
2023/05/10 07:06:30;;;;;;;36.03;19.10;;;;;;;;;;5036788;28;20453;-81
2023/05/10 07:08:56;;;;;;;34.40;19.20;;;;;;;;;;5036051;28;20391;-81
2023/05/10 07:11:23;;;;;;;36.03;18.50;;;;;;;;;;5036427;28;20546;-81
2023/05/10 07:13:49;;;;;;;30.63;18.80;;;;;;;;;;5036259;28;20907;-82
2023/05/10 07:16:15;;;;;;;37.13;20.30;;;;;;;;;;5035855;28;20451;-82
2023/05/10 07:18:41;;;;;;;33.23;19.57;;;;;;;;;;5035957;28;20459;-82
2023/05/10 07:21:07;;;;;;;37.37;21.13;;;;;;;;;;5035407;28;20416;-82
2023/05/10 07:23:33;;;;;;;38.80;19.90;;;;;;;;;;5035939;28;20502;-82
2023/05/10 07:25:59;;;;;;;37.03;22.80;;;;;;;;;;5036022;28;20408;-85
2023/05/10 07:28:25;;;;;;;37.17;19.90;;;;;;;;;;5035794;28;20466;-83
2023/05/10 07:30:51;;;;;;;40.00;21.13;;;;;;;;;;5035855;28;20456;-82
2023/05/10 07:33:17;;;;;;;34.23;20.00;;;;;;;;;;5035004;28;21031;-83
2023/05/10 07:35:43;;;;;;;38.20;19.97;;;;;;;;;;5053180;28;20419;-82
2023/05/10 07:38:11;;;;;;;34.17;18.73;;;;;;;;;;5035197;28;20887;-82
2023/05/10 07:40:38;;;;;;;36.83;20.73;;;;;;;;;;5036542;28;20427;-82
2023/05/10 07:43:04;;;;;;;33.63;19.43;;;;;;;;;;5039315;28;20514;-82
2023/05/10 07:45:30;;;;;;;32.60;20.03;;;;;;;;;;5039421;28;20451;-83
2023/05/10 07:47:56;;;;;;;33.47;18.47;;;;;;;;;;5039333;28;20415;-82
2023/05/10 07:50:22;;;;;;;28.20;16.63;;;;;;;;;;5039143;28;20859;-83
2023/05/10 07:52:48;;;;;;;37.77;18.17;;;;;;;;;;5038711;28;20472;-84
2023/05/10 07:55:14;;;;;;;26.40;16.60;;;;;;;;;;5056650;28;20413;-83
2023/05/10 07:57:40;;;;;;;20.70;13.57;;;;;;;;;;5056541;28;20371;-84
2023/05/10 08:00:07;;;;;;;23.87;14.40;;;;;;;;;;5038650;28;20426;-83
2023/05/10 08:02:33;;;;;;;24.07;14.13;;;;;;;;;;5056506;28;20404;-83
2023/05/10 08:04:59;;;;;;;19.67;12.30;;;;;;;;;;5038583;28;20428;-83
2023/05/10 08:07:25;;;;;;;25.37;11.67;;;;;;;;;;5056479;28;20419;-83
2023/05/10 08:09:51;;;;;;;15.97;10.13;;;;;;;;;;5056180;28;20977;-83
2023/05/10 08:12:17;;;;;;;17.30;11.10;;;;;;;;;;5038691;28;20412;-83
2023/05/10 08:14:43;;;;;;;25.23;12.60;;;;;;;;;;5056277;28;20462;-84
2023/05/10 08:17:09;;;;;;;27.63;14.30;;;;;;;;;;5056357;28;20396;-84
2023/05/10 08:19:35;;;;;;;20.53;13.10;;;;;;;;;;5039149;28;20904;-84
2023/05/10 08:22:01;;;;;;;24.13;13.83;;;;;;;;;;5056190;28;20481;-85
2023/05/10 08:24:27;;;;;;;26.23;15.83;;;;;;;;;;5038347;28;20815;-84
2023/05/10 08:26:53;;;;;;;27.53;14.77;;;;;;;;;;5038572;28;20412;-84
2023/05/10 08:29:19;;;;;;;28.23;17.07;;;;;;;;;;5038576;28;20442;-84
2023/05/10 08:31:45;;;;;;;25.93;14.73;;;;;;;;;;5038617;28;20420;-84
2023/05/10 08:34:11;;;;;;;22.47;14.50;;;;;;;;;;5037820;28;20515;-84
2023/05/10 08:36:37;;;;;;;25.67;15.77;;;;;;;;;;5038585;28;20922;-83
2023/05/10 08:39:04;;;;;;;28.20;16.67;;;;;;;;;;5038101;28;20411;-85
2023/05/10 08:41:30;;;;;;;24.83;15.07;;;;;;;;;;5038195;28;20408;-83
2023/05/10 08:43:56;;;;;;;25.03;15.97;;;;;;;;;;5056143;28;20420;-82
2023/05/10 08:46:23;;;;;;;27.10;16.00;;;;;;;;;;5037863;28;20420;-82
2023/05/10 08:48:49;;;;;;;20.07;12.63;;;;;;;;;;5055912;28;20415;-82
2023/05/10 08:51:19;;;;;;;21.27;12.60;;;;;;;;;;5037770;28;20440;-83
2023/05/10 08:53:46;;;;;;;13.90;10.53;;;;;;;;;;5037470;28;20471;-83
2023/05/10 08:56:12;;;;;;;18.90;12.47;;;;;;;;;;5037202;28;20946;-83
2023/05/10 08:58:39;;;;;;;14.00;8.90;;;;;;;;;;5055263;28;20407;-82
2023/05/10 09:01:05;;;;;;;11.17;8.63;;;;;;;;;;5037253;28;20416;-89
2023/05/10 09:03:32;;;;;;;9.70;7.60;;;;;;;;;;5055513;28;20420;-86
2023/05/10 09:05:58;;;;;;;11.97;8.40;;;;;;;;;;5037791;28;20408;-85
2023/05/10 09:08:25;;;;;;;9.40;7.60;;;;;;;;;;5055464;28;20405;-85
2023/05/10 09:10:51;;;;;;;12.30;7.73;;;;;;;;;;5055477;28;20836;-85
2023/05/10 09:13:18;;;;;;;14.67;9.77;;;;;;;;;;5037408;28;20818;-86
2023/05/10 09:15:44;;;;;;;16.83;10.40;;;;;;;;;;5037503;28;20427;-85
2023/05/10 09:18:10;;;;;;;24.43;14.63;;;;;;;;;;5037567;28;20435;-86
2023/05/10 09:20:36;;;;;;;30.03;16.00;;;;;;;;;;5037697;28;20419;-85
2023/05/10 09:23:02;;;;;;;31.03;17.27;;;;;;;;;;5036810;28;20832;-82
2023/05/10 09:25:28;;;;;;;34.70;16.13;;;;;;;;;;5054398;28;20444;-80
2023/05/10 09:27:55;;;;;;;26.30;15.20;;;;;;;;;;5037243;28;20404;-81
2023/05/10 09:30:25;;;;;;;22.50;14.90;;;;;;;;;;5037260;28;20409;-81
2023/05/10 09:32:51;;;;;;;20.60;13.30;;;;;;;;;;5054543;28;20467;-81
2023/05/10 09:35:19;;;;;;;21.47;12.73;;;;;;;;;;5037302;28;20411;-82
2023/05/10 09:37:47;;;;;;;21.23;14.27;;;;;;;;;;5037204;28;20408;-81
2023/05/10 09:40:15;;;;;;;18.97;12.43;;;;;;;;;;5037049;28;20797;-81
2023/05/10 09:42:41;;;;;;;18.83;11.83;;;;;;;;;;5055026;28;20465;-81
2023/05/10 09:45:07;;;;;;;15.50;11.53;;;;;;;;;;5036730;28;20534;-85
2023/05/10 09:47:34;;;;;;;17.13;11.17;;;;;;;;;;5037170;28;20900;-82
2023/05/10 09:50:03;;;;;;;14.30;9.60;;;;;;;;;;5054688;28;20482;-83
2023/05/10 09:52:29;;;;;;;12.80;8.17;;;;;;;;;;5036602;28;20567;-82
2023/05/10 09:54:55;;;;;;;12.37;8.97;;;;;;;;;;5037045;28;20459;-82
2023/05/10 09:57:22;;;;;;;12.03;8.57;;;;;;;;;;5036822;28;20431;-82
2023/05/10 09:59:49;;;;;;;14.90;10.00;;;;;;;;;;5037068;28;20383;-82
2023/05/10 10:02:15;;;;;;;16.50;9.10;;;;;;;;;;5054558;28;20396;-82
2023/05/10 10:04:41;;;;;;;14.17;10.13;;;;;;;;;;5054751;28;20735;-81
2023/05/10 10:07:07;;;;;;;19.50;12.30;;;;;;;;;;5054818;28;20400;-81
2023/05/10 10:09:34;;;;;;;18.47;10.27;;;;;;;;;;5036812;28;20503;-82
2023/05/10 10:12:01;;;;;;;15.67;11.63;;;;;;;;;;5054538;28;20400;-82
2023/05/10 10:14:28;;;;;;;17.87;10.73;;;;;;;;;;5036518;28;20863;-82
2023/05/10 10:16:53;;;;;;;22.33;14.17;;;;;;;;;;5036830;28;20768;-81
2023/05/10 10:19:20;;;;;;;19.20;11.50;;;;;;;;;;5036740;28;20419;-82
2023/05/10 10:21:46;;;;;;;16.07;11.50;;;;;;;;;;5054767;28;20424;-82
2023/05/10 10:24:12;;;;;;;16.83;9.73;;;;;;;;;;5036633;28;20408;-83
2023/05/10 10:26:40;;;;;;;13.77;10.30;;;;;;;;;;5036491;28;20904;-82
2023/05/10 10:29:20;;;;;;;12.67;9.17;;;;;;;;;;5036586;28;20494;-81
2023/05/10 10:31:49;;;;;;;10.20;6.83;;;;;;;;;;5036729;28;20400;-82
2023/05/10 10:34:34;;;;;;;7.73;6.60;;;;;;;;;;5036409;28;20625;-82
2023/05/10 10:37:04;;;;;;;6.97;6.10;;;;;;;;;;5036803;28;20874;-82
2023/05/10 10:39:31;;;;;;;5.90;5.30;;;;;;;;;;5036184;28;20415;-83
2023/05/10 10:41:57;;;;;;;7.00;4.67;;;;;;;;;;5054310;28;20386;-83
2023/05/10 10:44:24;;;;;;;6.80;4.97;;;;;;;;;;5053685;28;20404;-83
2023/05/10 10:47:00;;;;;;;5.57;4.67;;;;;;;;;;5036313;28;20465;-83
2023/05/10 10:49:27;;;;;;;7.60;4.00;;;;;;;;;;5036046;28;20522;-83
2023/05/10 10:52:22;;;;;;;6.03;5.40;;;;;;;;;;5036098;28;20447;-83
2023/05/10 10:55:00;;;;;;;4.40;4.00;;;;;;;;;;5048846;28;20518;-83
2023/05/10 10:57:26;;;;;;;3.50;3.00;;;;;;;;;;5036245;28;20473;-83
2023/05/10 11:00:12;;;;;;;5.53;4.20;;;;;;;;;;5054408;28;20404;-83
2023/05/10 11:02:41;;;;;;;3.57;3.17;;;;;;;;;;5036220;28;20460;-83
2023/05/10 11:05:26;;;;;;;3.73;3.10;;;;;;;;;;5054171;28;20415;-82
2023/05/10 11:07:59;;;;;;;4.93;3.40;;;;;;;;;;5036395;28;20514;-83
2023/05/10 11:10:25;;;;;;;3.50;3.17;;;;;;;;;;5053693;28;20766;-83
2023/05/10 11:13:05;;;;;;;4.07;3.40;;;;;;;;;;5036092;28;20470;-82
2023/05/10 11:15:31;;;;;;;3.50;3.20;;;;;;;;;;5036819;28;20412;-83
2023/05/10 11:17:57;;;;;;;3.80;3.40;;;;;;;;;;5039933;28;20389;-83
2023/05/10 11:20:28;;;;;;;4.17;3.77;;;;;;;;;;5057497;28;20408;-83
2023/05/10 11:22:55;;;;;;;3.50;2.83;;;;;;;;;;5057914;28;20395;-84
2023/05/10 11:25:26;;;;;;;4.00;3.00;;;;;;;;;;5057999;28;20436;-83
2023/05/10 11:27:53;;;;;;;3.40;3.10;;;;;;;;;;5058073;28;20399;-82
2023/05/10 11:30:19;;;;;;;4.80;2.80;;;;;;;;;;5039752;28;20391;-83
2023/05/10 11:32:45;;;;;;;3.13;2.20;;;;;;;;;;5039771;28;20454;-83
2023/05/10 11:35:12;;;;;;;2.80;2.60;;;;;;;;;;5039650;28;20545;-83
2023/05/10 11:37:43;;;;;;;2.47;2.17;;;;;;;;;;5039027;28;20395;-83
2023/05/10 11:40:10;;;;;;;2.97;2.73;;;;;;;;;;5039206;28;20428;-82
2023/05/10 11:42:38;;;;;;;3.00;2.77;;;;;;;;;;5056849;28;20465;-83
2023/05/10 11:45:04;;;;;;;3.87;2.20;;;;;;;;;;5057538;28;20404;-82
2023/05/10 11:47:30;;;;;;;2.57;2.37;;;;;;;;;;5039063;28;20412;-84
2023/05/10 11:49:57;;;;;;;2.20;2.00;;;;;;;;;;5056799;28;20470;-83
2023/05/10 11:52:24;;;;;;;5.00;2.87;;;;;;;;;;5038937;28;20387;-83
2023/05/10 11:54:53;;;;;;;2.80;2.27;;;;;;;;;;5057043;28;20430;-83
2023/05/10 11:57:20;;;;;;;2.40;2.20;;;;;;;;;;5038973;28;20408;-84
2023/05/10 11:59:47;;;;;;;2.40;2.20;;;;;;;;;;5056984;28;20371;-82
2023/05/10 12:02:16;;;;;;;3.10;2.47;;;;;;;;;;5039041;28;20416;-83
2023/05/10 12:04:42;;;;;;;2.40;2.20;;;;;;;;;;5038853;28;20440;-83
2023/05/10 12:07:09;;;;;;;3.13;2.67;;;;;;;;;;5039328;28;20400;-83
2023/05/10 12:09:35;;;;;;;3.13;1.80;;;;;;;;;;5038734;28;20391;-83
2023/05/10 12:12:02;;;;;;;2.87;1.80;;;;;;;;;;5038836;28;20423;-83
2023/05/10 12:14:33;;;;;;;2.60;2.27;;;;;;;;;;5056135;28;20510;-83
2023/05/10 12:16:59;;;;;;;2.90;2.70;;;;;;;;;;5039749;28;20383;-83
2023/05/10 12:19:25;;;;;;;2.77;2.47;;;;;;;;;;5038420;28;20497;-83
2023/05/10 12:21:52;;;;;;;2.40;2.20;;;;;;;;;;5038522;28;20408;-83
2023/05/10 12:24:19;;;;;;;3.40;2.27;;;;;;;;;;5038644;28;20478;-84
2023/05/10 12:26:46;;;;;;;2.83;2.60;;;;;;;;;;5038326;28;20420;-83
2023/05/10 12:29:16;;;;;;;2.40;2.20;;;;;;;;;;5038562;28;20417;-83
2023/05/10 12:31:55;;;;;;;2.30;1.83;;;;;;;;;;5038458;28;20416;-83
2023/05/10 12:34:30;;;;;;;2.43;2.10;;;;;;;;;;5055829;28;20450;-84
2023/05/10 12:36:56;;;;;;;2.70;1.53;;;;;;;;;;5038078;28;20781;-83
2023/05/10 12:39:24;;;;;;;2.00;1.90;;;;;;;;;;5038073;28;20745;-83
2023/05/10 12:41:51;;;;;;;2.00;1.77;;;;;;;;;;5056226;28;20412;-84
2023/05/10 12:44:17;;;;;;;1.83;1.30;;;;;;;;;;5056258;28;20400;-83
2023/05/10 12:46:43;;;;;;;2.37;1.43;;;;;;;;;;5056560;28;20387;-84
2023/05/10 12:49:10;;;;;;;3.20;1.60;;;;;;;;;;5056627;28;20513;-84
2023/05/10 12:51:36;;;;;;;1.67;1.03;;;;;;;;;;5037876;28;20391;-83
2023/05/10 12:54:03;;;;;;;1.53;1.10;;;;;;;;;;5055579;28;20822;-84
2023/05/10 12:56:29;;;;;;;2.63;1.20;;;;;;;;;;5037821;28;20387;-84
2023/05/10 12:58:55;;;;;;;2.07;1.23;;;;;;;;;;5055750;28;20393;-83
2023/05/10 13:01:21;;;;;;;3.73;0.97;;;;;;;;;;5055398;28;20432;-84
2023/05/10 13:03:47;;;;;;;1.00;0.90;;;;;;;;;;5055679;28;20416;-83
2023/05/10 13:06:14;;;;;;;2.93;1.10;;;;;;;;;;5037680;28;20776;-82
2023/05/10 13:08:40;;;;;;;1.17;1.00;;;;;;;;;;5055773;28;20390;-83
2023/05/10 13:11:06;;;;;;;2.53;0.90;;;;;;;;;;5055858;28;20375;-83
2023/05/10 13:13:32;;;;;;;1.60;1.10;;;;;;;;;;5055235;28;20498;-83
2023/05/10 13:15:58;;;;;;;1.37;1.00;;;;;;;;;;5037741;28;20943;-84
2023/05/10 13:18:25;;;;;;;1.30;0.97;;;;;;;;;;5037540;28;20378;-84
2023/05/10 13:20:52;;;;;;;4.33;1.27;;;;;;;;;;5037530;28;20759;-84
2023/05/10 13:23:18;;;;;;;1.30;1.20;;;;;;;;;;5037171;28;20423;-83
2023/05/10 13:25:44;;;;;;;1.40;1.23;;;;;;;;;;5037509;28;20858;-83
2023/05/10 13:28:10;;;;;;;1.33;1.23;;;;;;;;;;5037403;28;20910;-85
2023/05/10 13:30:36;;;;;;;2.53;1.40;;;;;;;;;;5037261;28;20395;-84
2023/05/10 13:33:02;;;;;;;1.27;1.00;;;;;;;;;;5036863;28;20480;-84
2023/05/10 13:35:28;;;;;;;1.20;1.10;;;;;;;;;;5037039;28;20395;-85
2023/05/10 13:37:56;;;;;;;1.60;1.50;;;;;;;;;;5054079;28;20411;-84
2023/05/10 13:40:22;;;;;;;1.87;1.60;;;;;;;;;;5036224;28;20798;-85
2023/05/10 13:42:48;;;;;;;2.10;1.90;;;;;;;;;;5036858;28;20849;-84
2023/05/10 13:45:14;;;;;;;2.47;1.50;;;;;;;;;;5036823;28;20749;-84
2023/05/10 13:47:40;;;;;;;3.90;1.80;;;;;;;;;;5030672;28;20394;-85
2023/05/10 13:50:07;;;;;;;2.33;1.60;;;;;;;;;;5046845;28;20435;-86
2023/05/10 13:52:33;;;;;;;1.73;1.37;;;;;;;;;;5067945;28;20382;-84
2023/05/10 13:54:59;;;;;;;1.70;1.27;;;;;;;;;;5049014;28;21005;-84
2023/05/10 13:57:25;;;;;;;2.27;1.80;;;;;;;;;;5056026;28;20378;-84
2023/05/10 13:59:52;;;;;;;2.20;1.50;;;;;;;;;;5039768;28;20758;-86
2023/05/10 14:02:18;;;;;;;2.70;1.83;;;;;;;;;;5056191;28;20408;-84
2023/05/10 14:04:44;;;;;;;3.57;2.00;;;;;;;;;;5056296;28;20385;-84
2023/05/10 14:07:10;;;;;;;3.20;2.20;;;;;;;;;;5056799;28;20378;-84
2023/05/10 14:09:36;;;;;;;3.67;2.27;;;;;;;;;;5074093;28;20891;-84
2023/05/10 14:12:02;;;;;;;2.70;2.27;;;;;;;;;;5074097;28;20735;-85
2023/05/10 14:14:29;;;;;;;2.47;2.00;;;;;;;;;;5039389;28;20524;-85
2023/05/10 14:16:55;;;;;;;3.83;2.00;;;;;;;;;;5073858;28;20441;-85
2023/05/10 14:19:21;;;;;;;2.80;2.10;;;;;;;;;;5056175;28;20898;-85
2023/05/10 14:21:47;;;;;;;3.20;2.63;;;;;;;;;;5039508;28;20426;-85
2023/05/10 14:24:13;;;;;;;3.50;2.50;;;;;;;;;;5074054;28;20422;-85